Terminal Aerodrome Forecast
Issued by NWS

Home | Current Version | Previous Version | Text Only | Print | Product List | Glossary On
Versions: 1 2 3 4 5 6 7 8 9 10 11 12 13
000
FTUS45 KABQ 021700
TAFLVS
TAF
KLVS 021734Z 0218/0318 16011KT P6SM FEW090
      TEMPO 0221/0301 16012G22KT
     FM030300 20007KT P6SM FEW250
     FM031700 20010G18KT P6SM FEW250=

USA.gov is the U.S. government's official web portal to all federal, state and local government web resources and services.